Time,TemperatureF,DewpointF,PressureIn,WindDirection,WindDirectionDegrees,WindSpeedMPH,WindSpeedGustMPH,Humidity,HourlyPrecipIn,Conditions,Clouds,dailyrainin,SoftwareType,DateUTC
2013-04-11 00:00:00,47.2,45.5,-100.00,SE,138,0.9,5.4,93,0.00,,,-99.99,HOBO +U30 +Weather +,2013-04-11 04:00:00,
2013-04-11 00:15:00,46.9,45.3,-100.00,SE,132,0.0,2.0,94,0.30,,,-99.99,HOBO +U30 +Weather +,2013-04-11 04:15:00,
2013-04-11 00:30:00,46.7,45.0,-100.00,ESE,115,0.0,0.0,93,0.00,,,-99.99,HOBO +U30 +Weather +,2013-04-11 04:30:00,
2013-04-11 00:45:00,46.8,45.1,-100.00,ESE,112,0.0,0.0,93,0.00,,,-99.99,HOBO +U30 +Weather +,2013-04-11 04:45:00,
2013-04-11 01:00:00,46.6,44.9,-100.00,ESE,110,0.0,0.0,93,0.30,,,-99.99,HOBO +U30 +Weather +,2013-04-11 05:00:00,
2013-04-11 01:15:00,46.4,44.9,-100.00,SE,128,0.0,0.4,94,0.30,,,-99.99,HOBO +U30 +Weather +,2013-04-11 05:15:00,
2013-04-11 01:30:00,46.2,44.6,-100.00,SE,138,0.0,0.0,94,0.30,,,-99.99,HOBO +U30 +Weather +,2013-04-11 05:30:00,
2013-04-11 01:45:00,46.2,44.6,-100.00,SE,138,0.0,0.0,94,0.00,,,-99.99,HOBO +U30 +Weather +,2013-04-11 05:45:00,
2013-04-11 02:00:00,46.3,44.6,-100.00,SE,138,0.0,0.0,94,0.00,,,-99.99,HOBO +U30 +Weather +,2013-04-11 06:00:00,
2013-04-11 02:15:00,46.3,44.6,-100.00,SE,138,0.0,0.0,94,0.00,,,-99.99,HOBO +U30 +Weather +,2013-04-11 06:15:00,
2013-04-11 02:30:00,46.3,44.7,-100.00,SE,138,0.0,0.0,94,0.00,,,-99.99,HOBO +U30 +Weather +,2013-04-11 06:30:00,
2013-04-11 02:45:00,46.4,44.9,-100.00,SE,138,0.0,0.0,94,0.00,,,-99.99,HOBO +U30 +Weather +,2013-04-11 06:45:00,
2013-04-11 03:00:00,46.6,45.0,-100.00,SE,138,0.0,0.0,94,0.00,,,-99.99,HOBO +U30 +Weather +,2013-04-11 07:00:00,
2013-04-11 03:15:00,46.7,45.2,-100.00,East,84,0.0,0.0,94,0.30,,,-99.99,HOBO +U30 +Weather +,2013-04-11 07:15:00,
2013-04-11 03:30:00,46.7,45.2,-100.00,NE,38,0.9,4.5,94,0.00,,,-99.99,HOBO +U30 +Weather +,2013-04-11 07:30:00,
2013-04-11 03:45:00,46.5,45.0,-100.00,NNE,32,1.3,5.4,94,0.00,,,-99.99,HOBO +U30 +Weather +,2013-04-11 07:45:00,
2013-04-11 04:00:00,46.3,44.8,-100.00,NNE,28,0.9,5.4,94,0.00,,,-99.99,HOBO +U30 +Weather +,2013-04-11 08:00:00,
2013-04-11 04:15:00,46.2,44.7,-100.00,NE,39,1.3,8.3,94,0.00,,,-99.99,HOBO +U30 +Weather +,2013-04-11 08:15:00,
2013-04-11 04:30:00,45.7,44.2,-100.00,NNE,28,2.9,12.1,94,0.00,,,-99.99,HOBO +U30 +Weather +,2013-04-11 08:30:00,
2013-04-11 04:45:00,45.7,44.1,-100.00,NE,34,2.5,9.2,94,0.00,,,-99.99,HOBO +U30 +Weather +,2013-04-11 08:45:00,
2013-04-11 05:00:00,45.6,44.0,-100.00,NE,37,2.5,9.6,94,0.00,,,-99.99,HOBO +U30 +Weather +,2013-04-11 09:00:00,
2013-04-11 05:15:00,45.5,44.0,-100.00,North,7,1.3,9.6,94,0.00,,,-99.99,HOBO +U30 +Weather +,2013-04-11 09:15:00,
2013-04-11 05:30:00,45.0,43.4,-100.00,NNE,15,2.0,7.4,94,0.00,,,-99.99,HOBO +U30 +Weather +,2013-04-11 09:30:00,
2013-04-11 05:45:00,45.0,43.3,-100.00,NNE,18,1.3,8.3,93,0.00,,,-99.99,HOBO +U30 +Weather +,2013-04-11 09:45:00,
2013-04-11 06:00:00,44.9,43.2,-100.00,North,7,0.0,0.0,93,0.00,,,-99.99,HOBO +U30 +Weather +,2013-04-11 10:00:00,
2013-04-11 06:15:00,44.8,43.0,-100.00,North,10,0.0,0.0,93,0.00,,,-99.99,HOBO +U30 +Weather +,2013-04-11 10:15:00,
2013-04-11 06:30:00,44.8,43.1,-100.00,North,3,0.0,0.0,93,0.00,,,-99.99,HOBO +U30 +Weather +,2013-04-11 10:30:00,
2013-04-11 06:45:00,44.9,43.1,-100.00,North,3,0.0,0.0,93,0.00,,,-99.99,HOBO +U30 +Weather +,2013-04-11 10:45:00,
2013-04-11 07:00:00,44.9,43.1,-100.00,NNE,21,0.9,7.4,93,0.00,,,-99.99,HOBO +U30 +Weather +,2013-04-11 11:00:00,
2013-04-11 07:15:00,45.2,43.4,-100.00,North,1,0.9,8.3,93,0.00,,,-99.99,HOBO +U30 +Weather +,2013-04-11 11:15:00,
2013-04-11 07:30:00,45.6,43.7,-100.00,North,0,0.9,6.7,93,0.00,,,-99.99,HOBO +U30 +Weather +,2013-04-11 11:30:00,
2013-04-11 07:45:00,45.7,43.8,-100.00,NNE,15,0.9,5.8,92,0.00,,,-99.99,HOBO +U30 +Weather +,2013-04-11 11:45:00,
2013-04-11 08:00:00,45.9,43.8,-100.00,NNW,341,0.0,1.3,92,0.00,,,-99.99,HOBO +U30 +Weather +,2013-04-11 12:00:00,
2013-04-11 08:15:00,46.6,43.9,-100.00,North,7,1.3,7.4,90,0.00,,,-99.99,HOBO +U30 +Weather +,2013-04-11 12:15:00,
2013-04-11 08:30:00,46.7,43.4,-100.00,North,1,3.8,10.1,88,0.00,,,-99.99,HOBO +U30 +Weather +,2013-04-11 12:30:00,
2013-04-11 08:45:00,46.8,42.2,-100.00,NNE,28,4.3,10.7,83,0.00,,,-99.99,HOBO +U30 +Weather +,2013-04-11 12:45:00,
2013-04-11 09:00:00,46.3,41.8,-100.00,North,8,2.9,10.3,84,0.00,,,-99.99,HOBO +U30 +Weather +,2013-04-11 13:00:00,
2013-04-11 09:15:00,46.3,41.4,-100.00,NE,37,0.9,7.4,83,0.00,,,-99.99,HOBO +U30 +Weather +,2013-04-11 13:15:00,
2013-04-11 09:30:00,46.3,41.5,-100.00,NNE,22,1.6,6.7,83,0.00,,,-99.99,HOBO +U30 +Weather +,2013-04-11 13:30:00,
2013-04-11 09:45:00,46.3,40.6,-100.00,NE,37,1.3,10.1,80,0.00,,,-99.99,HOBO +U30 +Weather +,2013-04-11 13:45:00,
2013-04-11 10:00:00,47.2,41.2,-100.00,NNE,24,2.9,7.8,79,0.00,,,-99.99,HOBO +U30 +Weather +,2013-04-11 14:00:00,
2013-04-11 10:15:00,47.2,40.8,-100.00,NNE,22,2.9,7.8,78,0.00,,,-99.99,HOBO +U30 +Weather +,2013-04-11 14:15:00,
2013-04-11 10:30:00,48.1,40.9,-100.00,NE,55,3.8,8.3,75,0.00,,,-99.99,HOBO +U30 +Weather +,2013-04-11 14:30:00,
2013-04-11 10:45:00,49.5,42.5,-100.00,NNE,21,2.5,7.8,76,0.00,,,-99.99,HOBO +U30 +Weather +,2013-04-11 14:45:00,
2013-04-11 11:00:00,48.4,41.0,-100.00,NE,51,3.4,11.2,75,0.00,,,-99.99,HOBO +U30 +Weather +,2013-04-11 15:00:00,
2013-04-11 11:15:00,49.1,40.1,-100.00,NE,39,3.4,7.2,71,0.00,,,-99.99,HOBO +U30 +Weather +,2013-04-11 15:15:00,
2013-04-11 11:30:00,49.7,41.1,-100.00,NE,42,2.5,7.2,72,0.00,,,-99.99,HOBO +U30 +Weather +,2013-04-11 15:30:00,
2013-04-11 11:45:00,49.9,41.7,-100.00,North,11,2.9,6.7,73,0.00,,,-99.99,HOBO +U30 +Weather +,2013-04-11 15:45:00,
2013-04-11 12:00:00,50.8,41.7,-100.00,NNE,27,3.4,10.1,70,0.00,,,-99.99,HOBO +U30 +Weather +,2013-04-11 16:00:00,
2013-04-11 12:15:00,50.8,42.0,-100.00,NE,51,2.9,8.7,71,0.00,,,-99.99,HOBO +U30 +Weather +,2013-04-11 16:15:00,
2013-04-11 12:30:00,51.2,41.6,-100.00,NNE,27,3.8,8.7,69,0.00,,,-99.99,HOBO +U30 +Weather +,2013-04-11 16:30:00,
2013-04-11 12:45:00,49.6,40.4,-100.00,NE,48,4.5,10.3,70,0.00,,,-99.99,HOBO +U30 +Weather +,2013-04-11 16:45:00,
2013-04-11 13:00:00,50.3,42.3,-100.00,ENE,77,3.8,10.1,74,0.00,,,-99.99,HOBO +U30 +Weather +,2013-04-11 17:00:00,
2013-04-11 13:15:00,50.2,42.8,-100.00,ENE,66,3.8,9.2,75,0.00,,,-99.99,HOBO +U30 +Weather +,2013-04-11 17:15:00,
2013-04-11 13:30:00,51.5,43.4,-100.00,East,98,2.9,8.7,73,0.00,,,-99.99,HOBO +U30 +Weather +,2013-04-11 17:30:00,
2013-04-11 13:45:00,54.3,40.2,-100.00,ENE,63,2.0,7.2,58,0.00,,,-99.99,HOBO +U30 +Weather +,2013-04-11 17:45:00,
2013-04-11 14:00:00,54.8,39.8,-100.00,NE,55,3.8,9.2,56,0.00,,,-99.99,HOBO +U30 +Weather +,2013-04-11 18:00:00,
2013-04-11 14:15:00,52.9,35.9,-100.00,North,355,4.3,10.7,52,0.00,,,-99.99,HOBO +U30 +Weather +,2013-04-11 18:15:00,
2013-04-11 14:30:00,52.0,34.8,-100.00,NNE,21,2.9,9.6,51,0.00,,,-99.99,HOBO +U30 +Weather +,2013-04-11 18:30:00,
2013-04-11 14:45:00,51.9,34.3,-100.00,NNE,32,2.9,7.8,50,0.00,,,-99.99,HOBO +U30 +Weather +,2013-04-11 18:45:00,
2013-04-11 15:00:00,51.5,33.9,-100.00,NE,56,3.4,10.7,50,0.00,,,-99.99,HOBO +U30 +Weather +,2013-04-11 19:00:00,
2013-04-11 15:15:00,51.0,32.4,-100.00,NE,48,3.8,9.6,48,0.00,,,-99.99,HOBO +U30 +Weather +,2013-04-11 19:15:00,
2013-04-11 15:30:00,50.1,30.0,-100.00,NE,52,4.5,11.6,45,0.00,,,-99.99,HOBO +U30 +Weather +,2013-04-11 19:30:00,
2013-04-11 15:45:00,49.7,30.6,-100.00,NE,41,3.4,8.7,47,0.00,,,-99.99,HOBO +U30 +Weather +,2013-04-11 19:45:00,
2013-04-11 16:00:00,49.2,29.5,-100.00,NE,45,3.4,8.3,46,0.00,,,-99.99,HOBO +U30 +Weather +,2013-04-11 20:00:00,
2013-04-11 16:15:00,48.7,28.9,-100.00,NE,53,3.4,8.7,46,0.00,,,-99.99,HOBO +U30 +Weather +,2013-04-11 20:15:00,
2013-04-11 16:30:00,48.2,29.1,-100.00,NE,45,2.9,7.4,47,0.00,,,-99.99,HOBO +U30 +Weather +,2013-04-11 20:30:00,
2013-04-11 16:45:00,47.5,28.7,-100.00,NE,53,3.4,9.6,47,0.00,,,-99.99,HOBO +U30 +Weather +,2013-04-11 20:45:00,
2013-04-11 17:00:00,47.4,30.3,-100.00,NE,49,2.5,7.8,51,0.00,,,-99.99,HOBO +U30 +Weather +,2013-04-11 21:00:00,
2013-04-11 17:15:00,47.5,30.9,-100.00,NE,48,3.4,11.2,52,0.00,,,-99.99,HOBO +U30 +Weather +,2013-04-11 21:15:00,
2013-04-11 17:30:00,47.4,31.7,-100.00,NE,39,2.9,8.7,54,0.00,,,-99.99,HOBO +U30 +Weather +,2013-04-11 21:30:00,
2013-04-11 17:45:00,46.7,30.6,-100.00,North,1,2.9,7.8,53,0.00,,,-99.99,HOBO +U30 +Weather +,2013-04-11 21:45:00,
2013-04-11 18:00:00,46.3,30.3,-100.00,North,10,2.5,5.8,53,0.00,,,-99.99,HOBO +U30 +Weather +,2013-04-11 22:00:00,
2013-04-11 18:15:00,46.5,31.6,-100.00,NNE,28,2.0,7.2,55,0.00,,,-99.99,HOBO +U30 +Weather +,2013-04-11 22:15:00,
2013-04-11 18:30:00,46.0,31.1,-100.00,NNE,32,3.4,9.2,55,0.00,,,-99.99,HOBO +U30 +Weather +,2013-04-11 22:30:00,
2013-04-11 18:45:00,45.6,31.1,-100.00,NE,34,3.4,8.7,56,0.00,,,-99.99,HOBO +U30 +Weather +,2013-04-11 22:45:00,
2013-04-11 19:00:00,44.9,29.6,-100.00,ENE,59,4.3,10.7,54,0.00,,,-99.99,HOBO +U30 +Weather +,2013-04-11 23:00:00,
2013-04-11 19:15:00,44.5,30.3,-100.00,NE,55,2.5,6.3,57,0.00,,,-99.99,HOBO +U30 +Weather +,2013-04-11 23:15:00,
2013-04-11 19:30:00,43.7,30.1,-100.00,NE,51,3.4,10.1,58,0.00,,,-99.99,HOBO +U30 +Weather +,2013-04-11 23:30:00,
2013-04-11 19:45:00,42.8,29.1,-100.00,NE,51,3.8,8.3,58,0.00,,,-99.99,HOBO +U30 +Weather +,2013-04-11 23:45:00,
2013-04-11 20:00:00,42.2,27.2,-100.00,NE,44,4.3,11.2,55,0.00,,,-99.99,HOBO +U30 +Weather +,2013-04-12 00:00:00,
2013-04-11 20:15:00,41.7,26.7,-100.00,ENE,59,2.9,11.6,54,0.00,,,-99.99,HOBO +U30 +Weather +,2013-04-12 00:15:00,
2013-04-11 20:30:00,41.4,26.3,-100.00,ENE,65,2.5,7.2,54,0.00,,,-99.99,HOBO +U30 +Weather +,2013-04-12 00:30:00,
2013-04-11 20:45:00,41.2,26.3,-100.00,ENE,63,2.5,10.3,55,0.00,,,-99.99,HOBO +U30 +Weather +,2013-04-12 00:45:00,
2013-04-11 21:00:00,40.9,27.0,-100.00,NE,52,2.9,7.4,57,0.00,,,-99.99,HOBO +U30 +Weather +,2013-04-12 01:00:00,
2013-04-11 21:15:00,40.5,27.6,-100.00,NE,41,2.9,7.2,59,0.00,,,-99.99,HOBO +U30 +Weather +,2013-04-12 01:15:00,
2013-04-11 21:30:00,40.3,28.2,-100.00,NE,37,1.6,7.4,61,0.00,,,-99.99,HOBO +U30 +Weather +,2013-04-12 01:30:00,
2013-04-11 21:45:00,39.9,29.9,-100.00,NE,41,1.6,5.4,67,0.00,,,-99.99,HOBO +U30 +Weather +,2013-04-12 01:45:00,
2013-04-11 22:00:00,39.8,29.3,-100.00,NE,46,1.3,3.8,65,0.00,,,-99.99,HOBO +U30 +Weather +,2013-04-12 02:00:00,
2013-04-11 22:15:00,39.7,29.2,-100.00,NE,45,1.3,4.3,65,0.00,,,-99.99,HOBO +U30 +Weather +,2013-04-12 02:15:00,
2013-04-11 22:30:00,38.9,30.4,-100.00,ENE,67,0.9,3.4,71,0.30,,,-99.99,HOBO +U30 +Weather +,2013-04-12 02:30:00,
2013-04-11 22:45:00,38.4,31.3,-100.00,ENE,67,0.4,2.0,75,0.00,,,-99.99,HOBO +U30 +Weather +,2013-04-12 02:45:00,
2013-04-11 23:00:00,38.8,31.3,-100.00,ENE,67,0.9,3.8,74,0.00,,,-99.99,HOBO +U30 +Weather +,2013-04-12 03:00:00,
2013-04-11 23:15:00,38.8,31.2,-100.00,ENE,62,0.9,3.8,73,0.00,,,-99.99,HOBO +U30 +Weather +,2013-04-12 03:15:00,
2013-04-11 23:30:00,39.0,31.1,-100.00,ENE,69,1.6,5.8,72,0.00,,,-99.99,HOBO +U30 +Weather +,2013-04-12 03:30:00,
2013-04-11 23:45:00,38.3,31.9,-100.00,East,80,0.4,4.5,77,0.00,,,-99.99,HOBO +U30 +Weather +,2013-04-12 03:45:00,